createdAt,value
2023-04-10T00:07:18.132Z,6268.846153846154
2023-04-10T00:13:36.927Z,6271.1438127090305
2023-04-10T00:19:55.563Z,6148.80602006689
2023-04-10T00:37:27.786Z,5988.913043478261
2023-04-10T00:43:51.571Z,5966.909698996656
2023-04-10T01:01:17.875Z,6214.505016722408
2023-04-10T01:15:10.801Z,6349.4648829431435
2023-04-10T01:21:29.137Z,6367.023411371238
2023-04-10T01:27:48.120Z,6489.391304347826
2023-04-10T01:38:15.338Z,6651.441471571907
2023-04-10T01:48:49.363Z,7034.3779264214045
2023-04-10T02:05:17.261Z,7146.020066889632
2023-04-10T02:13:32.719Z,7054.936454849499
2023-04-10T02:25:51.229Z,7230.903010033445
2023-04-10T02:41:52.604Z,7312.976588628762
2023-04-10T02:52:56.963Z,7191.702341137124
2023-04-10T02:59:15.110Z,7448.086956521739
2023-04-10T03:05:33.097Z,7391.688963210702
2023-04-10T03:13:27.862Z,7540.5953177257525
2023-04-10T03:20:38.139Z,7518.33110367893
2023-04-10T03:26:56.422Z,7509.742474916388
2023-04-10T03:33:14.026Z,7599.501672240803
2023-04-10T03:39:31.674Z,7642.173913043478
2023-04-10T03:45:49.734Z,7677.361204013378
2023-04-10T03:57:39.985Z,7762.354515050167
2023-04-10T04:14:26.156Z,7671.541806020067
2023-04-10T04:20:44.264Z,7692.1605351170565
2023-04-10T04:27:02.057Z,7708.1438127090305
2023-04-10T04:33:19.805Z,7767.531772575251
2023-04-10T04:48:13.316Z,7706.3779264214045
2023-04-10T04:56:42.172Z,7630.9866220735785
2023-04-10T05:05:00.152Z,7731.822742474917
2023-04-10T05:17:38.497Z,7583.688963210702
2023-04-10T05:23:59.175Z,7581.511705685619
2023-04-10T05:38:00.478Z,7548.48160535117
2023-04-10T05:44:20.702Z,7435.0133779264215
2023-04-10T06:05:07.168Z,7344.71237458194
2023-04-10T06:11:27.545Z,7238.046822742475
2023-04-10T06:26:42.438Z,7077.752508361204
2023-04-10T06:37:32.051Z,6816.993311036789
2023-04-10T06:43:52.706Z,6737.267558528428
2023-04-10T06:52:23.648Z,6585.832775919733
2023-04-10T07:01:36.045Z,6472.946488294315
2023-04-10T07:07:56.736Z,6371.267558528428
2023-04-10T07:16:17.612Z,6193.665551839465
2023-04-10T07:22:38.051Z,6002.117056856187
2023-04-10T07:28:58.762Z,5937.892976588629
2023-04-10T07:35:19.435Z,5718.832775919733
2023-04-10T07:53:24.698Z,5417.387959866221
2023-04-10T08:00:11.289Z,5297.688963210702
2023-04-10T08:10:48.339Z,4654.8561872909695
2023-04-10T08:17:09.406Z,4481.538461538462
2023-04-10T08:23:30.308Z,4167.140468227425
2023-04-10T08:29:51.751Z,3985.1739130434785
2023-04-10T08:36:13.817Z,3966.6622073578596
2023-04-10T08:42:35.748Z,3843.9732441471574
2023-04-10T08:50:30.192Z,3741.9933110367892
2023-04-10T08:58:57.350Z,3548.879598662207
2023-04-10T09:05:18.447Z,3395.3879598662206
2023-04-10T09:11:40.244Z,3286.0434782608695
2023-04-10T09:18:02.101Z,3073.7759197324413
2023-04-10T09:24:22.165Z,2789.28762541806
2023-04-10T09:30:42.506Z,2651.086956521739
2023-04-10T09:37:02.694Z,2346.953177257525
2023-04-10T09:43:21.894Z,2244.872909698997
2023-04-10T09:57:01.291Z,2159.327759197324
2023-04-10T10:04:20.999Z,2161.133779264214
2023-04-10T10:13:31.405Z,2232.4615384615386
2023-04-10T10:19:51.054Z,2126.5484949832776
2023-04-10T10:26:10.347Z,2163.38127090301
2023-04-10T10:32:29.887Z,2077.494983277592
2023-04-10T10:38:49.986Z,2033.1371237458195
2023-04-10T10:45:09.552Z,2030.4180602006688
2023-04-10T10:51:29.178Z,2076.7023411371238
2023-04-10T10:57:49.710Z,2077.2240802675587
2023-04-10T11:04:09.324Z,2038.8662207357859
2023-04-10T11:25:25.076Z,2000.3979933110368
2023-04-10T11:35:50.697Z,1868.4983277591973
2023-04-10T11:42:12.433Z,1940.428093645485
2023-04-10T11:48:35.000Z,1906.0334448160536
2023-04-10T11:54:55.593Z,1902.0100334448161
2023-04-10T12:01:17.874Z,1856.046822742475
2023-04-10T12:07:37.836Z,1741.5852842809365
2023-04-10T12:13:57.943Z,1755.71237458194
2023-04-10T12:20:17.730Z,1745.979933110368
2023-04-10T12:26:37.718Z,1671.732441471572
2023-04-10T12:32:57.800Z,1767.4515050167224
2023-04-10T12:39:24.389Z,1595.1170568561872
2023-04-10T12:45:44.201Z,1539.4013377926422
2023-04-10T12:52:04.333Z,1584.2408026755852
2023-04-10T12:58:44.213Z,1599.4314381270904
2023-04-10T13:11:51.932Z,1528.9464882943143
2023-04-10T13:19:47.261Z,1450.4147157190635
2023-04-10T13:26:09.122Z,1413.4816053511706
2023-04-10T13:39:46.935Z,1370.608695652174
2023-04-10T13:46:06.586Z,1372.4247491638796
2023-04-10T13:59:14.709Z,1227.561872909699
2023-04-10T14:05:35.375Z,1182.953177257525
2023-04-10T14:11:55.427Z,1174.5351170568563
2023-04-10T14:18:15.243Z,1148.0167224080267
2023-04-10T14:24:35.072Z,1126.2240802675585
2023-04-10T14:30:55.052Z,1077.1505016722408
2023-04-10T14:43:10.446Z,1036.695652173913
2023-04-10T14:49:30.774Z,1150.0635451505016
2023-04-10T14:57:00.675Z,1157.4180602006688
2023-04-10T15:09:50.934Z,1188.571906354515
2023-04-10T15:16:11.256Z,1097.5183946488294
2023-04-10T15:22:31.097Z,1144.324414715719
2023-04-10T15:28:51.877Z,1183.6354515050168
2023-04-10T15:35:12.340Z,1102.4648829431437
2023-04-10T15:41:32.968Z,1120.0535117056857
2023-04-10T15:53:03.532Z,1031.809364548495
2023-04-10T15:59:27.530Z,1078.0434782608695
2023-04-10T16:08:15.562Z,1009.5752508361204
2023-04-10T16:17:29.294Z,1027.123745819398
2023-04-10T16:23:50.510Z,1015.7458193979933
2023-04-10T16:30:11.029Z,962.3879598662207
2023-04-10T16:36:32.206Z,983.0066889632106
2023-04-10T16:42:52.472Z,953.4782608695652
2023-04-10T16:50:45.066Z,995.0267558528428
2023-04-10T16:57:06.044Z,934.1036789297659
2023-04-10T17:03:26.746Z,837.6722408026756
2023-04-10T17:09:48.311Z,864.010033444816
2023-04-10T17:17:35.272Z,853.6354515050167
2023-04-10T17:26:41.360Z,887.0468227424749
2023-04-10T17:32:59.910Z,801.9933110367894
2023-04-10T17:39:18.707Z,823.5652173913044
2023-04-10T17:45:49.620Z,634.0735785953177
2023-04-10T17:57:51.735Z,581.3578595317725
2023-04-10T18:04:13.291Z,572.3578595317725
2023-04-10T18:16:14.289Z,645.2107023411371
2023-04-10T18:29:01.283Z,704.5083612040133
2023-04-10T18:40:47.053Z,755.1070234113712
2023-04-10T18:47:05.188Z,757.2642140468228
2023-04-10T18:53:23.263Z,779.2374581939799
2023-04-10T18:59:42.162Z,802.4749163879599
2023-04-10T19:07:56.632Z,819.2508361204013
2023-04-10T19:14:20.872Z,846.5919732441472
2023-04-10T19:20:49.972Z,785.8294314381271
2023-04-10T19:27:09.876Z,833.2173913043479
2023-04-10T19:33:28.424Z,828.6822742474916
2023-04-10T19:39:53.478Z,803.5183946488295
2023-04-10T19:46:11.738Z,839.9698996655518
2023-04-10T19:52:31.817Z,837.561872909699
2023-04-10T20:05:48.702Z,898.5953177257525
2023-04-10T20:12:12.093Z,957.3110367892976
2023-04-10T20:18:33.566Z,1038.020066889632
2023-04-10T20:24:54.196Z,1141.4046822742475
2023-04-10T20:31:15.380Z,1065.0100334448161
2023-04-10T20:37:38.441Z,1061.056856187291
2023-04-10T20:43:59.795Z,1053.5418060200668
2023-04-10T20:50:22.213Z,1051.7257525083612
2023-04-10T20:57:11.511Z,935.6488294314381
2023-04-10T21:03:31.487Z,901.3344481605351
2023-04-10T21:17:18.833Z,809.247491638796
2023-04-10T21:28:31.649Z,696.6020066889632
2023-04-10T21:37:26.474Z,699.8929765886288
2023-04-10T21:43:49.655Z,689.3578595317725
2023-04-10T21:50:09.334Z,692.9197324414715
2023-04-10T21:56:34.302Z,676.3344481605351
2023-04-10T22:03:09.556Z,663.4314381270902
2023-04-10T22:09:32.745Z,728.61872909699
2023-04-10T22:15:56.514Z,710.6086956521739
2023-04-10T22:24:49.841Z,690.8327759197324
2023-04-10T22:31:11.034Z,714.4515050167224
2023-04-10T22:37:32.496Z,679.304347826087
2023-04-10T22:43:52.096Z,677.4682274247492
2023-04-10T22:50:12.440Z,650.1170568561873
2023-04-10T22:56:33.168Z,593.2173913043479
2023-04-10T23:02:53.843Z,582.8929765886288
2023-04-10T23:09:15.018Z,554.2675585284281
2023-04-10T23:15:38.506Z,560.6688963210702
2023-04-10T23:22:01.183Z,543.180602006689
2023-04-10T23:28:21.271Z,558.8829431438127
2023-04-10T23:39:30.950Z,579.0602006688963
2023-04-10T23:45:54.382Z,633.0702341137123
2023-04-10T23:55:50.010Z,654.7826086956521
